createdAt,value
2018-07-20T04:14:35.684Z,6.47
2018-07-20T04:17:04.732Z,7.55
2018-07-20T04:19:33.757Z,7.72
2018-07-20T04:22:02.829Z,7.28
2018-07-20T04:24:31.883Z,6.35
2018-07-20T04:27:00.928Z,7.40
2018-07-20T04:29:30.135Z,8.80
2018-07-20T04:31:59.167Z,8.23
2018-07-20T04:34:28.232Z,7.17
2018-07-20T04:36:57.264Z,7.83
2018-07-20T04:39:26.351Z,7.78
2018-07-20T04:41:55.413Z,7.60
2018-07-20T04:44:24.463Z,7.70
2018-07-20T04:46:53.487Z,7.83
2018-07-20T04:49:22.598Z,8.10
2018-07-20T04:51:51.639Z,7.58
2018-07-20T04:54:20.695Z,9.15
2018-07-20T04:56:49.720Z,7.17
2018-07-20T04:59:18.764Z,8.93
2018-07-20T05:01:47.864Z,8.80
2018-07-20T05:04:16.962Z,8.03
2018-07-20T05:06:46.024Z,7.08
2018-07-20T05:09:15.076Z,8.08
2018-07-20T05:11:44.121Z,8.25
2018-07-20T05:14:13.164Z,8.43
2018-07-20T05:16:42.300Z,6.62
2018-07-20T05:19:11.382Z,6.08
2018-07-20T05:21:40.469Z,6.25
2018-07-20T05:24:09.534Z,7.08
2018-07-20T05:26:38.876Z,5.72
2018-07-20T05:29:07.928Z,6.47
2018-07-20T05:31:37.090Z,5.55
2018-07-20T05:34:06.296Z,5.28
2018-07-20T05:36:35.349Z,5.65
2018-07-20T05:39:06.026Z,5.55
2018-07-20T05:41:35.161Z,4.62
2018-07-20T05:44:04.359Z,6.58
2018-07-20T05:46:33.351Z,4.75
2018-07-20T05:49:02.408Z,4.50
2018-07-20T05:51:31.479Z,5.80
2018-07-20T05:54:00.491Z,4.75
2018-07-20T05:56:29.577Z,5.62
2018-07-20T05:58:58.692Z,4.72
2018-07-20T06:01:27.883Z,4.37
2018-07-20T06:03:56.923Z,3.95
2018-07-20T06:06:26.001Z,5.37
2018-07-20T06:08:55.098Z,3.90
2018-07-20T06:11:24.147Z,4.20
2018-07-20T06:13:53.209Z,4.33
2018-07-20T06:16:22.280Z,3.33
2018-07-20T06:18:51.370Z,4.00
2018-07-20T06:21:20.448Z,4.05
2018-07-20T06:23:49.581Z,3.70
2018-07-20T06:26:18.614Z,3.80
2018-07-20T06:28:47.678Z,4.03
2018-07-20T06:31:16.838Z,6.80
2018-07-20T06:33:45.888Z,4.05
2018-07-20T06:36:14.961Z,5.08
2018-07-20T06:38:43.984Z,3.50
2018-07-20T06:41:13.044Z,6.80
2018-07-20T06:43:42.126Z,5.00
2018-07-20T06:46:11.546Z,4.28
2018-07-20T06:48:40.609Z,3.02
2018-07-20T06:51:10.043Z,4.78
2018-07-20T06:53:39.221Z,4.77
2018-07-20T06:56:08.321Z,5.67
2018-07-20T06:58:37.795Z,5.17
2018-07-20T07:01:07.541Z,3.20
2018-07-20T07:03:37.040Z,2.53
2018-07-20T07:06:06.250Z,3.33
2018-07-20T07:08:35.503Z,4.50
2018-07-20T07:11:05.123Z,3.53
2018-07-20T07:13:34.773Z,4.53
2018-07-20T07:16:04.901Z,4.43
2018-07-20T07:18:35.636Z,2.93
2018-07-20T07:21:05.849Z,4.73
2018-07-20T07:23:35.666Z,4.00
2018-07-20T07:26:05.661Z,5.20
2018-07-20T07:28:35.351Z,5.70
2018-07-20T07:31:04.897Z,4.50
2018-07-20T07:33:34.929Z,2.67
2018-07-20T07:36:05.363Z,3.27
2018-07-20T07:38:35.967Z,2.60
2018-07-20T07:41:05.996Z,2.37
2018-07-20T07:43:36.175Z,2.57
2018-07-20T07:46:05.420Z,3.40
2018-07-20T07:48:35.488Z,3.60
2018-07-20T07:51:05.473Z,2.57
2018-07-20T07:53:35.192Z,4.30
2018-07-20T07:56:05.520Z,2.67
2018-07-20T07:58:34.583Z,2.60
2018-07-20T08:01:04.793Z,3.53
2018-07-20T08:03:33.916Z,3.83
2018-07-20T08:06:03.797Z,2.83
2018-07-20T08:08:34.126Z,2.53
2018-07-20T08:11:04.352Z,2.40
2018-07-20T08:13:34.359Z,3.27
2018-07-20T08:16:04.798Z,3.20
2018-07-20T08:18:34.906Z,2.37
2018-07-20T08:21:04.529Z,6.20
2018-07-20T08:23:33.677Z,2.37
2018-07-20T08:26:03.156Z,5.03
2018-07-20T08:28:33.648Z,2.77
2018-07-20T08:31:02.799Z,2.03
2018-07-20T08:33:31.953Z,4.27
2018-07-20T08:36:01.250Z,3.97
2018-07-20T08:38:30.337Z,1.77
2018-07-20T08:40:59.405Z,2.47
2018-07-20T08:43:28.492Z,2.13
2018-07-20T08:45:57.819Z,2.87
2018-07-20T08:48:26.888Z,3.07
2018-07-20T08:50:55.912Z,1.77
2018-07-20T08:53:25.096Z,1.80
2018-07-20T08:55:54.236Z,2.17
2018-07-20T08:58:23.325Z,2.37
2018-07-20T09:00:52.381Z,1.47
2018-07-20T09:03:21.622Z,3.70
2018-07-20T09:05:50.684Z,3.90
2018-07-20T09:08:19.821Z,3.00
2018-07-20T09:10:48.868Z,2.80
2018-07-20T09:13:17.946Z,2.50
2018-07-20T09:15:46.999Z,1.70
2018-07-20T09:18:16.051Z,1.13
2018-07-20T09:20:45.281Z,1.63
2018-07-20T09:23:14.489Z,3.23
2018-07-20T09:25:43.500Z,2.07
2018-07-20T09:28:12.589Z,2.47
2018-07-20T09:30:41.644Z,4.30
2018-07-20T09:33:10.751Z,1.53
2018-07-20T09:35:39.775Z,1.10
2018-07-20T09:38:09.131Z,2.10
2018-07-20T09:40:38.841Z,1.33
2018-07-20T09:43:07.998Z,1.20
2018-07-20T09:45:37.004Z,2.70
2018-07-20T09:48:06.097Z,1.43
2018-07-20T09:50:35.176Z,0.80
2018-07-20T09:53:04.236Z,2.40
2018-07-20T09:55:33.271Z,1.20
2018-07-20T09:58:02.813Z,1.40
2018-07-20T10:00:38.399Z,2.87
2018-07-20T10:03:07.585Z,1.87
2018-07-20T10:05:36.613Z,1.70
2018-07-20T10:08:05.856Z,1.90
2018-07-20T10:10:34.912Z,2.20
2018-07-20T10:13:04.232Z,2.60
2018-07-20T10:15:33.363Z,1.63
2018-07-20T10:18:02.572Z,1.47
2018-07-20T10:20:31.587Z,2.60
2018-07-20T10:23:01.113Z,1.03
2018-07-20T10:25:30.243Z,3.40
2018-07-20T10:27:58.967Z,2.60
2018-07-20T10:30:27.923Z,1.27
2018-07-20T10:32:56.936Z,1.17
2018-07-20T10:35:26.088Z,1.37
2018-07-20T10:37:55.303Z,1.40
2018-07-20T10:40:28.093Z,2.67
2018-07-20T10:42:58.652Z,1.57
2018-07-20T10:45:27.817Z,1.83
2018-07-20T10:47:56.891Z,0.90
2018-07-20T10:50:25.936Z,1.17
2018-07-20T10:52:54.975Z,1.63
2018-07-20T10:55:24.017Z,1.67
2018-07-20T10:57:53.712Z,1.07
2018-07-20T11:00:22.811Z,1.83
2018-07-20T11:02:51.920Z,2.07
2018-07-20T11:05:20.981Z,1.00
2018-07-20T11:07:49.997Z,0.70
2018-07-20T11:10:19.088Z,1.57
2018-07-20T11:12:48.112Z,1.83
2018-07-20T11:15:17.173Z,1.47
2018-07-20T11:17:46.195Z,1.17
2018-07-20T11:20:15.325Z,0.80
2018-07-20T11:22:44.405Z,1.27
2018-07-20T11:25:13.543Z,1.37
2018-07-20T11:27:42.592Z,1.40
2018-07-20T11:30:12.728Z,1.90
2018-07-20T11:32:41.826Z,1.73
2018-07-20T11:35:10.904Z,1.17
2018-07-20T11:37:39.925Z,2.87
2018-07-20T11:40:08.995Z,1.80
2018-07-20T11:42:38.041Z,1.33
2018-07-20T11:45:07.460Z,1.10
2018-07-20T11:47:36.480Z,1.30
2018-07-20T11:50:05.956Z,1.93
2018-07-20T11:52:35.029Z,3.63
2018-07-20T11:55:04.121Z,1.90
2018-07-20T11:57:33.133Z,1.60
2018-07-20T12:00:02.218Z,1.80
2018-07-20T12:02:31.273Z,1.90
2018-07-20T12:05:00.347Z,1.67
2018-07-20T12:07:29.480Z,2.87
2018-07-20T12:09:58.548Z,3.27
2018-07-20T12:12:27.584Z,1.90
2018-07-20T12:14:56.621Z,1.53
2018-07-20T12:17:25.662Z,2.47
2018-07-20T12:19:54.411Z,1.60
2018-07-20T12:22:23.351Z,3.73
2018-07-20T12:24:52.432Z,1.83
2018-07-20T12:27:21.648Z,2.73
2018-07-20T12:29:50.748Z,1.87
2018-07-20T12:32:19.764Z,2.13
2018-07-20T12:34:48.817Z,1.93
2018-07-20T12:37:17.881Z,2.47
2018-07-20T12:39:46.932Z,2.20
2018-07-20T12:42:15.985Z,2.90
2018-07-20T12:44:45.088Z,1.70
2018-07-20T12:47:14.110Z,2.57
2018-07-20T12:49:43.160Z,1.80
2018-07-20T12:52:12.264Z,4.33
2018-07-20T12:54:41.320Z,1.83
2018-07-20T12:57:10.432Z,2.37
2018-07-20T12:59:39.485Z,3.43
2018-07-20T13:02:08.220Z,2.40
2018-07-20T13:04:37.181Z,1.80
2018-07-20T13:07:06.212Z,1.70
2018-07-20T13:09:35.305Z,2.87
2018-07-20T13:12:04.421Z,3.40
2018-07-20T13:14:33.465Z,1.70
2018-07-20T13:17:02.532Z,2.10
2018-07-20T13:19:31.612Z,2.37
2018-07-20T13:22:00.711Z,2.23
2018-07-20T13:24:29.761Z,2.57
2018-07-20T13:26:58.920Z,3.30
2018-07-20T13:29:27.929Z,5.57
2018-07-20T13:31:57.189Z,1.90
2018-07-20T13:34:26.229Z,2.93
2018-07-20T13:36:55.310Z,4.63
2018-07-20T13:39:24.353Z,3.10
2018-07-20T13:41:53.440Z,2.80
2018-07-20T13:44:22.517Z,2.43
2018-07-20T13:46:51.685Z,2.43
2018-07-20T13:49:20.818Z,2.47
2018-07-20T13:51:49.980Z,3.70
2018-07-20T13:54:19.071Z,2.47
2018-07-20T13:56:48.127Z,1.90
2018-07-20T13:59:17.184Z,2.97
2018-07-20T14:01:46.416Z,1.87
2018-07-20T14:04:15.481Z,2.17
2018-07-20T14:06:44.525Z,2.03
2018-07-20T14:09:13.596Z,2.27
2018-07-20T14:11:42.751Z,4.00
2018-07-20T14:14:11.812Z,4.60
2018-07-20T14:16:40.879Z,1.83
2018-07-20T14:19:10.294Z,3.67
2018-07-20T14:21:39.320Z,1.80
2018-07-20T14:24:08.419Z,3.23
2018-07-20T14:26:37.515Z,2.00
2018-07-20T14:29:06.529Z,3.53
2018-07-20T14:31:35.718Z,2.03
2018-07-20T14:34:04.707Z,2.27
2018-07-20T14:36:33.796Z,3.70
2018-07-20T14:39:02.943Z,2.60
2018-07-20T14:41:32.000Z,2.00
2018-07-20T14:44:01.039Z,2.77
2018-07-20T14:46:30.170Z,3.23
2018-07-20T14:48:58.916Z,2.90
2018-07-20T14:51:27.918Z,2.70
2018-07-20T14:53:56.950Z,5.07
2018-07-20T14:56:25.996Z,1.87
2018-07-20T14:58:55.021Z,2.33
2018-07-20T15:01:24.161Z,2.70
2018-07-20T15:03:53.256Z,2.20
2018-07-20T15:06:22.392Z,2.13
2018-07-20T15:08:51.416Z,2.43
2018-07-20T15:11:20.188Z,2.50
2018-07-20T15:13:48.847Z,4.90
2018-07-20T15:16:17.813Z,3.93
2018-07-20T15:18:46.915Z,4.63
2018-07-20T15:21:16.011Z,2.70
2018-07-20T15:23:45.038Z,2.07
2018-07-20T15:26:14.080Z,2.10
2018-07-20T15:28:43.155Z,4.70
2018-07-20T15:31:12.423Z,2.13
2018-07-20T15:33:41.609Z,3.47
2018-07-20T15:36:10.532Z,4.10
2018-07-20T15:38:39.779Z,2.50
2018-07-20T15:41:09.176Z,2.50
2018-07-20T15:43:39.515Z,2.97
2018-07-20T15:46:08.678Z,2.40
2018-07-20T15:48:37.728Z,3.00
2018-07-20T15:51:06.813Z,4.03
2018-07-20T15:53:37.064Z,2.73
2018-07-20T15:56:04.999Z,2.60
2018-07-20T15:58:34.084Z,2.90
2018-07-20T16:01:03.120Z,4.30
2018-07-20T16:03:32.352Z,3.10
2018-07-20T16:06:01.395Z,2.73
2018-07-20T16:08:30.453Z,3.17
2018-07-20T16:10:59.629Z,4.03
2018-07-20T16:13:28.716Z,3.00
2018-07-20T16:15:57.753Z,3.80
2018-07-20T16:18:26.808Z,3.20
2018-07-20T16:20:55.910Z,3.23
2018-07-20T16:23:24.959Z,4.70
2018-07-20T16:25:54.072Z,3.43
2018-07-20T16:28:23.091Z,3.03
2018-07-20T16:30:52.212Z,3.83
2018-07-20T16:33:21.273Z,4.50
2018-07-20T16:35:50.412Z,3.50
2018-07-20T16:38:19.476Z,3.33
2018-07-20T16:40:48.516Z,3.10
2018-07-20T16:43:17.575Z,4.27
2018-07-20T16:45:46.711Z,3.93
2018-07-20T16:48:15.778Z,6.07
2018-07-20T16:50:44.821Z,3.37
2018-07-20T16:53:13.900Z,3.50
2018-07-20T16:55:43.095Z,3.43
2018-07-20T16:58:12.231Z,3.40
2018-07-20T17:00:41.388Z,5.13
2018-07-20T17:03:10.440Z,5.00
2018-07-20T17:05:39.465Z,7.53
2018-07-20T17:08:08.554Z,4.97
2018-07-20T17:10:37.642Z,3.77
2018-07-20T17:13:06.696Z,5.80
2018-07-20T17:15:35.755Z,5.80
2018-07-20T17:18:04.973Z,3.13
2018-07-20T17:20:34.133Z,3.40
2018-07-20T17:23:03.224Z,3.43
2018-07-20T17:25:32.300Z,5.90
2018-07-20T17:28:01.613Z,5.73
2018-07-20T17:30:30.564Z,4.33
2018-07-20T17:32:59.700Z,4.30
2018-07-20T17:35:28.750Z,7.53
2018-07-20T17:37:57.801Z,4.50
2018-07-20T17:40:26.800Z,4.03
2018-07-20T17:42:55.859Z,5.60
2018-07-20T17:45:24.909Z,4.40
2018-07-20T17:47:53.953Z,4.10
2018-07-20T17:50:22.967Z,4.97
2018-07-20T17:52:52.027Z,4.03
2018-07-20T17:55:20.795Z,4.07
2018-07-20T17:57:49.730Z,6.10
2018-07-20T18:00:18.843Z,4.90
2018-07-20T18:02:48.741Z,5.33
2018-07-20T18:05:17.832Z,3.60
2018-07-20T18:07:47.129Z,3.80
2018-07-20T18:10:16.181Z,4.90
2018-07-20T18:12:45.240Z,4.70
2018-07-20T18:15:14.544Z,4.97
2018-07-20T18:17:43.755Z,5.60
2018-07-20T18:20:12.820Z,14.70
2018-07-20T18:22:41.898Z,15.73
2018-07-20T18:25:10.971Z,11.17
2018-07-20T18:27:40.236Z,10.00
2018-07-20T18:30:09.511Z,11.37
2018-07-20T18:32:38.760Z,6.23
2018-07-20T18:35:07.890Z,4.33
2018-07-20T18:37:36.983Z,5.70
2018-07-20T18:40:05.841Z,4.03
2018-07-20T18:42:34.779Z,4.90
2018-07-20T18:45:04.080Z,4.90
2018-07-20T18:47:33.235Z,7.00
2018-07-20T18:50:02.429Z,4.53
2018-07-20T18:52:33.730Z,4.10
2018-07-20T18:55:02.847Z,5.97
2018-07-20T18:57:31.975Z,4.33
2018-07-20T19:00:01.100Z,4.50
2018-07-20T19:02:30.214Z,5.30
2018-07-20T19:04:59.300Z,4.10
2018-07-20T19:07:28.607Z,9.43
2018-07-20T19:09:57.757Z,5.07
2018-07-20T19:12:26.984Z,4.63
2018-07-20T19:14:56.049Z,4.40
2018-07-20T19:17:25.241Z,4.33
2018-07-20T19:19:54.331Z,4.53
2018-07-20T19:22:23.397Z,6.77
2018-07-20T19:24:53.029Z,6.30
2018-07-20T19:27:22.136Z,4.90
2018-07-20T19:29:51.254Z,18.30
2018-07-20T19:32:20.728Z,12.43
2018-07-20T19:34:50.443Z,11.80
2018-07-20T19:37:20.986Z,4.65
2018-07-20T19:39:53.375Z,4.95
2018-07-20T19:42:23.149Z,4.75
2018-07-20T19:44:52.256Z,5.20
2018-07-20T19:47:21.412Z,6.33
2018-07-20T19:49:50.672Z,5.20
2018-07-20T19:52:19.802Z,6.95
2018-07-20T19:54:48.964Z,9.30
2018-07-20T19:57:18.456Z,5.50
2018-07-20T19:59:47.599Z,5.22
2018-07-20T20:02:16.750Z,5.00
2018-07-20T20:04:46.775Z,7.60
2018-07-20T20:07:15.906Z,5.47
2018-07-20T20:09:45.306Z,6.03
2018-07-20T20:12:15.017Z,5.60
2018-07-20T20:14:44.239Z,5.90
2018-07-20T20:17:13.275Z,5.10
2018-07-20T20:19:42.380Z,5.33
2018-07-20T20:22:11.456Z,7.62
2018-07-20T20:24:40.474Z,5.22
2018-07-20T20:27:09.576Z,5.85
2018-07-20T20:29:38.685Z,5.20
2018-07-20T20:32:07.821Z,5.17
2018-07-20T20:34:36.936Z,5.80
2018-07-20T20:37:06.334Z,5.97
2018-07-20T20:39:35.779Z,5.78
2018-07-20T20:42:05.065Z,5.45
2018-07-20T20:44:33.948Z,5.85
2018-07-20T20:47:03.083Z,5.92
2018-07-20T20:49:32.200Z,5.75
2018-07-20T20:52:01.289Z,6.00
2018-07-20T20:54:30.845Z,5.78
2018-07-20T20:56:59.993Z,6.95
2018-07-20T20:59:29.130Z,6.37
2018-07-20T21:01:59.230Z,6.67
2018-07-20T21:04:28.421Z,12.60
2018-07-20T21:06:57.926Z,7.65
2018-07-20T21:09:27.102Z,6.00
2018-07-20T21:11:56.207Z,6.62
2018-07-20T21:14:25.344Z,6.12
2018-07-20T21:16:54.560Z,6.78
2018-07-20T21:19:23.688Z,5.22
2018-07-20T21:21:52.948Z,5.95
2018-07-20T21:24:21.989Z,8.70
2018-07-20T21:26:51.263Z,5.30
2018-07-20T21:29:20.899Z,10.08
2018-07-20T21:31:50.444Z,7.40
2018-07-20T21:34:19.279Z,8.80
2018-07-20T21:36:48.549Z,6.00
2018-07-20T21:39:17.595Z,6.03
2018-07-20T21:41:47.333Z,5.70
2018-07-20T21:44:16.461Z,7.17
2018-07-20T21:46:45.628Z,5.33
2018-07-20T21:49:14.735Z,5.53
2018-07-20T21:51:43.942Z,6.08
2018-07-20T21:54:12.812Z,6.12
2018-07-20T21:56:41.789Z,8.95
2018-07-20T21:59:10.942Z,5.90
2018-07-20T22:01:40.912Z,6.62
2018-07-20T22:04:10.180Z,6.80
2018-07-20T22:06:39.272Z,8.60
